sensor_id;sensor_type;location;lat;lon;timestamp;P1;durP1;ratioP1;P2;durP2;ratioP2
15968;SDS011;8085;53.472;9.794;2023-01-16T00:01:20;10.33;;;4.03;;
15968;SDS011;8085;53.472;9.794;2023-01-16T00:03:48;9.77;;;4.63;;
15968;SDS011;8085;53.472;9.794;2023-01-16T00:06:15;9.27;;;4.43;;
15968;SDS011;8085;53.472;9.794;2023-01-16T00:08:42;7.93;;;4.07;;
15968;SDS011;8085;53.472;9.794;2023-01-16T00:11:10;7.10;;;3.90;;
15968;SDS011;8085;53.472;9.794;2023-01-16T00:13:37;7.40;;;3.83;;
15968;SDS011;8085;53.472;9.794;2023-01-16T00:16:05;5.60;;;3.70;;
15968;SDS011;8085;53.472;9.794;2023-01-16T00:18:32;5.47;;;3.50;;
15968;SDS011;8085;53.472;9.794;2023-01-16T00:20:59;6.13;;;3.40;;
15968;SDS011;8085;53.472;9.794;2023-01-16T00:23:26;7.07;;;3.50;;
15968;SDS011;8085;53.472;9.794;2023-01-16T00:25:53;5.77;;;2.90;;
15968;SDS011;8085;53.472;9.794;2023-01-16T00:28:21;5.20;;;2.73;;
15968;SDS011;8085;53.472;9.794;2023-01-16T00:30:48;8.60;;;2.67;;
15968;SDS011;8085;53.472;9.794;2023-01-16T00:33:15;5.67;;;2.57;;
15968;SDS011;8085;53.472;9.794;2023-01-16T00:35:43;4.53;;;2.70;;
15968;SDS011;8085;53.472;9.794;2023-01-16T00:38:10;5.77;;;2.80;;
15968;SDS011;8085;53.472;9.794;2023-01-16T00:40:37;5.83;;;2.60;;
15968;SDS011;8085;53.472;9.794;2023-01-16T00:43:03;4.20;;;2.30;;
15968;SDS011;8085;53.472;9.794;2023-01-16T00:45:32;8.10;;;2.80;;
15968;SDS011;8085;53.472;9.794;2023-01-16T00:47:59;4.97;;;2.53;;
15968;SDS011;8085;53.472;9.794;2023-01-16T00:50:25;6.50;;;2.60;;
15968;SDS011;8085;53.472;9.794;2023-01-16T00:52:52;5.93;;;2.40;;
15968;SDS011;8085;53.472;9.794;2023-01-16T00:55:19;6.60;;;2.57;;
15968;SDS011;8085;53.472;9.794;2023-01-16T00:57:46;4.90;;;2.53;;
15968;SDS011;8085;53.472;9.794;2023-01-16T01:00:13;6.07;;;2.37;;
15968;SDS011;8085;53.472;9.794;2023-01-16T01:02:42;3.47;;;1.83;;
15968;SDS011;8085;53.472;9.794;2023-01-16T01:05:09;6.90;;;2.80;;
15968;SDS011;8085;53.472;9.794;2023-01-16T01:07:36;5.40;;;2.80;;
15968;SDS011;8085;53.472;9.794;2023-01-16T01:10:03;5.77;;;2.13;;
15968;SDS011;8085;53.472;9.794;2023-01-16T01:12:30;6.73;;;2.40;;
15968;SDS011;8085;53.472;9.794;2023-01-16T01:14:57;6.60;;;2.20;;
15968;SDS011;8085;53.472;9.794;2023-01-16T01:17:24;5.47;;;2.10;;
15968;SDS011;8085;53.472;9.794;2023-01-16T01:19:52;7.80;;;2.20;;
15968;SDS011;8085;53.472;9.794;2023-01-16T01:22:19;5.27;;;2.00;;
15968;SDS011;8085;53.472;9.794;2023-01-16T01:24:46;4.20;;;1.90;;
15968;SDS011;8085;53.472;9.794;2023-01-16T01:27:14;3.33;;;1.70;;
15968;SDS011;8085;53.472;9.794;2023-01-16T01:29:41;5.13;;;2.10;;
15968;SDS011;8085;53.472;9.794;2023-01-16T01:32:08;3.53;;;1.80;;
15968;SDS011;8085;53.472;9.794;2023-01-16T01:34:35;4.60;;;1.77;;
15968;SDS011;8085;53.472;9.794;2023-01-16T01:37:05;4.37;;;1.90;;
15968;SDS011;8085;53.472;9.794;2023-01-16T01:39:33;4.17;;;1.97;;
15968;SDS011;8085;53.472;9.794;2023-01-16T01:42:00;4.27;;;1.60;;
15968;SDS011;8085;53.472;9.794;2023-01-16T01:44:52;3.13;;;1.40;;
15968;SDS011;8085;53.472;9.794;2023-01-16T01:47:21;5.83;;;1.70;;
15968;SDS011;8085;53.472;9.794;2023-01-16T01:49:52;4.77;;;1.63;;
15968;SDS011;8085;53.472;9.794;2023-01-16T01:52:23;6.50;;;1.73;;
15968;SDS011;8085;53.472;9.794;2023-01-16T01:54:53;6.93;;;1.60;;
15968;SDS011;8085;53.472;9.794;2023-01-16T01:57:24;4.20;;;1.53;;
15968;SDS011;8085;53.472;9.794;2023-01-16T01:59:57;4.77;;;1.60;;
15968;SDS011;8085;53.472;9.794;2023-01-16T02:02:28;4.93;;;1.50;;
15968;SDS011;8085;53.472;9.794;2023-01-16T02:04:59;4.37;;;1.40;;
15968;SDS011;8085;53.472;9.794;2023-01-16T02:07:31;4.93;;;1.30;;
15968;SDS011;8085;53.472;9.794;2023-01-16T02:10:01;3.23;;;1.47;;
15968;SDS011;8085;53.472;9.794;2023-01-16T02:12:33;6.43;;;1.30;;
15968;SDS011;8085;53.472;9.794;2023-01-16T02:15:01;6.50;;;1.50;;
15968;SDS011;8085;53.472;9.794;2023-01-16T02:17:28;3.50;;;1.37;;
15968;SDS011;8085;53.472;9.794;2023-01-16T02:20:17;4.53;;;1.50;;
15968;SDS011;8085;53.472;9.794;2023-01-16T02:25:52;4.37;;;1.50;;
15968;SDS011;8085;53.472;9.794;2023-01-16T02:28:49;4.40;;;1.30;;
15968;SDS011;8085;53.472;9.794;2023-01-16T02:31:32;5.63;;;1.60;;
15968;SDS011;8085;53.472;9.794;2023-01-16T02:34:14;4.93;;;1.63;;
15968;SDS011;8085;53.472;9.794;2023-01-16T02:36:59;3.80;;;1.50;;
15968;SDS011;8085;53.472;9.794;2023-01-16T02:39:35;7.60;;;1.87;;
15968;SDS011;8085;53.472;9.794;2023-01-16T02:42:11;5.50;;;1.70;;
15968;SDS011;8085;53.472;9.794;2023-01-16T02:44:43;5.70;;;1.77;;
15968;SDS011;8085;53.472;9.794;2023-01-16T02:47:18;6.60;;;2.10;;
15968;SDS011;8085;53.472;9.794;2023-01-16T02:49:53;4.70;;;1.73;;
15968;SDS011;8085;53.472;9.794;2023-01-16T02:52:30;4.67;;;1.90;;
15968;SDS011;8085;53.472;9.794;2023-01-16T02:55:03;5.00;;;1.63;;
15968;SDS011;8085;53.472;9.794;2023-01-16T02:57:34;2.00;;;1.20;;
15968;SDS011;8085;53.472;9.794;2023-01-16T03:00:03;3.60;;;1.60;;
15968;SDS011;8085;53.472;9.794;2023-01-16T03:02:32;6.07;;;1.67;;
15968;SDS011;8085;53.472;9.794;2023-01-16T03:04:59;3.97;;;1.40;;
15968;SDS011;8085;53.472;9.794;2023-01-16T03:07:40;6.33;;;1.77;;
15968;SDS011;8085;53.472;9.794;2023-01-16T03:13:24;2.77;;;1.40;;
15968;SDS011;8085;53.472;9.794;2023-01-16T03:16:07;5.23;;;1.37;;
15968;SDS011;8085;53.472;9.794;2023-01-16T03:18:44;3.30;;;1.40;;
15968;SDS011;8085;53.472;9.794;2023-01-16T03:21:19;7.57;;;1.73;;
15968;SDS011;8085;53.472;9.794;2023-01-16T03:23:52;4.50;;;1.77;;
15968;SDS011;8085;53.472;9.794;2023-01-16T03:26:24;4.17;;;1.63;;
15968;SDS011;8085;53.472;9.794;2023-01-16T03:28:57;3.33;;;1.80;;
15968;SDS011;8085;53.472;9.794;2023-01-16T03:31:32;3.57;;;1.53;;
15968;SDS011;8085;53.472;9.794;2023-01-16T03:34:08;2.50;;;1.40;;
15968;SDS011;8085;53.472;9.794;2023-01-16T03:36:40;3.90;;;1.60;;
15968;SDS011;8085;53.472;9.794;2023-01-16T03:39:13;7.47;;;1.50;;
15968;SDS011;8085;53.472;9.794;2023-01-16T03:41:42;5.40;;;1.63;;
15968;SDS011;8085;53.472;9.794;2023-01-16T03:44:13;3.53;;;1.60;;
15968;SDS011;8085;53.472;9.794;2023-01-16T03:46:50;4.03;;;1.50;;
15968;SDS011;8085;53.472;9.794;2023-01-16T03:49:19;5.03;;;1.50;;
15968;SDS011;8085;53.472;9.794;2023-01-16T03:51:48;3.40;;;1.10;;
15968;SDS011;8085;53.472;9.794;2023-01-16T03:54:21;5.87;;;1.63;;
15968;SDS011;8085;53.472;9.794;2023-01-16T03:56:55;5.90;;;1.40;;
15968;SDS011;8085;53.472;9.794;2023-01-16T03:59:29;5.00;;;1.57;;
15968;SDS011;8085;53.472;9.794;2023-01-16T04:01:56;4.10;;;1.37;;
15968;SDS011;8085;53.472;9.794;2023-01-16T04:04:27;4.13;;;1.20;;
15968;SDS011;8085;53.472;9.794;2023-01-16T04:06:59;2.67;;;1.40;;
15968;SDS011;8085;53.472;9.794;2023-01-16T04:09:33;3.60;;;1.53;;
15968;SDS011;8085;53.472;9.794;2023-01-16T04:12:04;7.70;;;2.00;;
15968;SDS011;8085;53.472;9.794;2023-01-16T04:14:33;7.93;;;1.30;;
15968;SDS011;8085;53.472;9.794;2023-01-16T04:17:00;4.03;;;1.47;;
15968;SDS011;8085;53.472;9.794;2023-01-16T04:19:31;4.77;;;1.33;;
15968;SDS011;8085;53.472;9.794;2023-01-16T04:22:03;2.37;;;1.40;;
15968;SDS011;8085;53.472;9.794;2023-01-16T04:24:31;6.13;;;1.40;;
15968;SDS011;8085;53.472;9.794;2023-01-16T04:26:58;3.10;;;1.10;;
15968;SDS011;8085;53.472;9.794;2023-01-16T04:29:25;4.23;;;1.03;;
15968;SDS011;8085;53.472;9.794;2023-01-16T04:31:52;4.50;;;0.77;;
15968;SDS011;8085;53.472;9.794;2023-01-16T04:34:19;5.00;;;1.00;;
15968;SDS011;8085;53.472;9.794;2023-01-16T04:36:47;8.77;;;1.43;;
15968;SDS011;8085;53.472;9.794;2023-01-16T04:39:14;4.67;;;1.03;;
15968;SDS011;8085;53.472;9.794;2023-01-16T04:41:40;4.37;;;1.00;;
15968;SDS011;8085;53.472;9.794;2023-01-16T04:44:08;4.30;;;1.00;;
15968;SDS011;8085;53.472;9.794;2023-01-16T04:46:36;2.63;;;0.80;;
15968;SDS011;8085;53.472;9.794;2023-01-16T04:49:03;4.80;;;1.00;;
15968;SDS011;8085;53.472;9.794;2023-01-16T04:51:31;3.47;;;0.80;;
15968;SDS011;8085;53.472;9.794;2023-01-16T04:53:59;3.77;;;1.10;;
15968;SDS011;8085;53.472;9.794;2023-01-16T04:56:26;3.20;;;1.00;;
15968;SDS011;8085;53.472;9.794;2023-01-16T04:58:53;5.20;;;1.10;;
15968;SDS011;8085;53.472;9.794;2023-01-16T05:01:20;3.77;;;1.10;;
15968;SDS011;8085;53.472;9.794;2023-01-16T05:03:47;3.57;;;0.93;;
15968;SDS011;8085;53.472;9.794;2023-01-16T05:06:14;3.80;;;1.00;;
15968;SDS011;8085;53.472;9.794;2023-01-16T05:08:41;2.77;;;1.00;;
15968;SDS011;8085;53.472;9.794;2023-01-16T05:11:09;2.77;;;1.23;;
15968;SDS011;8085;53.472;9.794;2023-01-16T05:13:36;4.57;;;1.40;;
15968;SDS011;8085;53.472;9.794;2023-01-16T05:16:03;3.17;;;1.30;;
15968;SDS011;8085;53.472;9.794;2023-01-16T05:18:31;6.60;;;1.10;;
15968;SDS011;8085;53.472;9.794;2023-01-16T05:20:58;4.17;;;1.20;;
15968;SDS011;8085;53.472;9.794;2023-01-16T05:23:25;3.63;;;1.30;;
15968;SDS011;8085;53.472;9.794;2023-01-16T05:25:52;3.87;;;1.10;;
15968;SDS011;8085;53.472;9.794;2023-01-16T05:28:21;3.30;;;0.87;;
15968;SDS011;8085;53.472;9.794;2023-01-16T05:30:48;1.23;;;0.70;;
15968;SDS011;8085;53.472;9.794;2023-01-16T05:33:14;3.77;;;1.20;;
15968;SDS011;8085;53.472;9.794;2023-01-16T05:35:41;3.03;;;1.00;;
15968;SDS011;8085;53.472;9.794;2023-01-16T05:38:08;2.63;;;1.03;;
15968;SDS011;8085;53.472;9.794;2023-01-16T05:40:35;3.37;;;1.10;;
15968;SDS011;8085;53.472;9.794;2023-01-16T05:43:02;2.33;;;1.10;;
15968;SDS011;8085;53.472;9.794;2023-01-16T05:45:30;3.40;;;1.07;;
15968;SDS011;8085;53.472;9.794;2023-01-16T05:47:57;3.67;;;0.80;;
15968;SDS011;8085;53.472;9.794;2023-01-16T05:50:24;3.30;;;1.07;;
15968;SDS011;8085;53.472;9.794;2023-01-16T05:52:51;4.60;;;1.10;;
15968;SDS011;8085;53.472;9.794;2023-01-16T05:55:18;3.43;;;1.00;;
15968;SDS011;8085;53.472;9.794;2023-01-16T05:57:44;1.73;;;0.87;;
15968;SDS011;8085;53.472;9.794;2023-01-16T06:00:11;5.27;;;1.10;;
15968;SDS011;8085;53.472;9.794;2023-01-16T06:02:40;5.23;;;1.10;;
15968;SDS011;8085;53.472;9.794;2023-01-16T06:05:08;6.13;;;1.00;;
15968;SDS011;8085;53.472;9.794;2023-01-16T06:07:35;3.03;;;1.03;;
15968;SDS011;8085;53.472;9.794;2023-01-16T06:10:02;2.57;;;1.00;;
15968;SDS011;8085;53.472;9.794;2023-01-16T06:12:29;5.63;;;1.10;;
15968;SDS011;8085;53.472;9.794;2023-01-16T06:14:57;2.77;;;1.07;;
15968;SDS011;8085;53.472;9.794;2023-01-16T06:17:24;2.93;;;1.07;;
15968;SDS011;8085;53.472;9.794;2023-01-16T06:19:52;3.80;;;0.87;;
15968;SDS011;8085;53.472;9.794;2023-01-16T06:22:19;3.07;;;1.00;;
15968;SDS011;8085;53.472;9.794;2023-01-16T06:24:46;2.43;;;0.70;;
15968;SDS011;8085;53.472;9.794;2023-01-16T06:27:13;1.20;;;0.70;;
15968;SDS011;8085;53.472;9.794;2023-01-16T06:29:39;3.07;;;1.00;;
15968;SDS011;8085;53.472;9.794;2023-01-16T06:32:06;3.87;;;1.13;;
15968;SDS011;8085;53.472;9.794;2023-01-16T06:34:33;2.70;;;1.00;;
15968;SDS011;8085;53.472;9.794;2023-01-16T06:37:01;1.77;;;0.80;;
15968;SDS011;8085;53.472;9.794;2023-01-16T06:39:28;2.40;;;0.60;;
15968;SDS011;8085;53.472;9.794;2023-01-16T06:41:55;4.43;;;1.00;;
15968;SDS011;8085;53.472;9.794;2023-01-16T06:44:22;3.10;;;0.90;;
15968;SDS011;8085;53.472;9.794;2023-01-16T06:46:49;3.07;;;0.83;;
15968;SDS011;8085;53.472;9.794;2023-01-16T06:49:16;4.50;;;1.17;;
15968;SDS011;8085;53.472;9.794;2023-01-16T06:51:42;1.70;;;0.90;;
15968;SDS011;8085;53.472;9.794;2023-01-16T06:54:11;3.10;;;0.97;;
15968;SDS011;8085;53.472;9.794;2023-01-16T06:56:37;3.33;;;0.90;;
15968;SDS011;8085;53.472;9.794;2023-01-16T06:59:04;4.83;;;0.90;;
15968;SDS011;8085;53.472;9.794;2023-01-16T07:01:31;4.23;;;0.90;;
15968;SDS011;8085;53.472;9.794;2023-01-16T07:03:58;2.17;;;0.70;;
15968;SDS011;8085;53.472;9.794;2023-01-16T07:06:25;2.97;;;1.00;;
15968;SDS011;8085;53.472;9.794;2023-01-16T07:08:51;2.03;;;0.80;;
15968;SDS011;8085;53.472;9.794;2023-01-16T07:11:20;3.47;;;0.90;;
15968;SDS011;8085;53.472;9.794;2023-01-16T07:13:47;4.60;;;1.03;;
15968;SDS011;8085;53.472;9.794;2023-01-16T07:16:14;3.43;;;0.63;;
15968;SDS011;8085;53.472;9.794;2023-01-16T07:19:00;2.67;;;1.00;;
15968;SDS011;8085;53.472;9.794;2023-01-16T07:21:50;3.17;;;0.97;;
15968;SDS011;8085;53.472;9.794;2023-01-16T07:24:36;1.93;;;0.90;;
15968;SDS011;8085;53.472;9.794;2023-01-16T07:27:06;2.60;;;0.97;;
15968;SDS011;8085;53.472;9.794;2023-01-16T07:29:35;2.13;;;0.90;;
15968;SDS011;8085;53.472;9.794;2023-01-16T07:32:03;3.60;;;0.90;;
15968;SDS011;8085;53.472;9.794;2023-01-16T07:34:30;2.20;;;0.87;;
15968;SDS011;8085;53.472;9.794;2023-01-16T07:37:00;1.87;;;0.73;;
15968;SDS011;8085;53.472;9.794;2023-01-16T07:39:27;2.10;;;0.70;;
15968;SDS011;8085;53.472;9.794;2023-01-16T07:41:54;4.07;;;0.90;;
15968;SDS011;8085;53.472;9.794;2023-01-16T07:44:22;4.53;;;1.03;;
15968;SDS011;8085;53.472;9.794;2023-01-16T07:46:48;5.50;;;1.10;;
15968;SDS011;8085;53.472;9.794;2023-01-16T07:49:15;2.87;;;0.80;;
15968;SDS011;8085;53.472;9.794;2023-01-16T07:51:42;3.13;;;0.90;;
15968;SDS011;8085;53.472;9.794;2023-01-16T07:54:09;2.63;;;0.80;;
15968;SDS011;8085;53.472;9.794;2023-01-16T07:56:36;3.87;;;0.87;;
15968;SDS011;8085;53.472;9.794;2023-01-16T07:59:03;3.20;;;1.23;;
15968;SDS011;8085;53.472;9.794;2023-01-16T08:01:31;2.07;;;0.90;;
15968;SDS011;8085;53.472;9.794;2023-01-16T08:03:58;2.60;;;1.00;;
15968;SDS011;8085;53.472;9.794;2023-01-16T08:06:25;3.97;;;1.20;;
15968;SDS011;8085;53.472;9.794;2023-01-16T08:08:52;5.43;;;1.20;;
15968;SDS011;8085;53.472;9.794;2023-01-16T08:11:18;5.23;;;1.57;;
15968;SDS011;8085;53.472;9.794;2023-01-16T08:14:04;4.13;;;1.17;;
15968;SDS011;8085;53.472;9.794;2023-01-16T08:16:33;1.93;;;1.10;;
15968;SDS011;8085;53.472;9.794;2023-01-16T08:19:00;2.83;;;1.00;;
15968;SDS011;8085;53.472;9.794;2023-01-16T08:21:27;2.20;;;0.93;;
15968;SDS011;8085;53.472;9.794;2023-01-16T08:23:54;1.60;;;0.80;;
15968;SDS011;8085;53.472;9.794;2023-01-16T08:26:21;4.13;;;1.00;;
15968;SDS011;8085;53.472;9.794;2023-01-16T08:28:47;2.10;;;0.80;;
15968;SDS011;8085;53.472;9.794;2023-01-16T08:31:14;3.13;;;0.73;;
15968;SDS011;8085;53.472;9.794;2023-01-16T08:33:44;2.23;;;0.83;;
15968;SDS011;8085;53.472;9.794;2023-01-16T08:36:12;2.87;;;0.80;;
15968;SDS011;8085;53.472;9.794;2023-01-16T08:38:40;2.07;;;0.80;;
15968;SDS011;8085;53.472;9.794;2023-01-16T08:41:07;3.10;;;0.90;;
15968;SDS011;8085;53.472;9.794;2023-01-16T08:43:55;2.17;;;0.90;;
15968;SDS011;8085;53.472;9.794;2023-01-16T08:46:39;2.00;;;0.73;;
15968;SDS011;8085;53.472;9.794;2023-01-16T08:49:25;4.53;;;0.90;;
15968;SDS011;8085;53.472;9.794;2023-01-16T08:52:10;5.20;;;1.00;;
15968;SDS011;8085;53.472;9.794;2023-01-16T08:54:37;2.97;;;0.80;;
15968;SDS011;8085;53.472;9.794;2023-01-16T08:57:04;5.43;;;1.00;;
15968;SDS011;8085;53.472;9.794;2023-01-16T08:59:31;3.57;;;1.00;;
15968;SDS011;8085;53.472;9.794;2023-01-16T09:01:59;3.63;;;0.80;;
15968;SDS011;8085;53.472;9.794;2023-01-16T09:04:27;1.23;;;0.70;;
15968;SDS011;8085;53.472;9.794;2023-01-16T09:06:54;4.77;;;1.30;;
15968;SDS011;8085;53.472;9.794;2023-01-16T09:09:21;2.40;;;0.97;;
15968;SDS011;8085;53.472;9.794;2023-01-16T09:11:53;2.20;;;0.87;;
15968;SDS011;8085;53.472;9.794;2023-01-16T09:14:38;2.67;;;1.00;;
15968;SDS011;8085;53.472;9.794;2023-01-16T09:17:05;3.17;;;0.77;;
15968;SDS011;8085;53.472;9.794;2023-01-16T09:19:34;1.63;;;0.80;;
15968;SDS011;8085;53.472;9.794;2023-01-16T09:22:01;2.10;;;1.00;;
15968;SDS011;8085;53.472;9.794;2023-01-16T09:24:31;2.53;;;0.90;;
15968;SDS011;8085;53.472;9.794;2023-01-16T09:26:58;3.93;;;1.00;;
15968;SDS011;8085;53.472;9.794;2023-01-16T09:29:24;1.80;;;0.60;;
15968;SDS011;8085;53.472;9.794;2023-01-16T09:31:52;1.77;;;0.83;;
15968;SDS011;8085;53.472;9.794;2023-01-16T09:34:19;3.87;;;1.03;;
15968;SDS011;8085;53.472;9.794;2023-01-16T09:36:47;3.00;;;0.87;;
15968;SDS011;8085;53.472;9.794;2023-01-16T09:39:15;2.33;;;1.00;;
15968;SDS011;8085;53.472;9.794;2023-01-16T09:41:48;3.67;;;0.90;;
15968;SDS011;8085;53.472;9.794;2023-01-16T09:44:44;2.97;;;0.80;;
15968;SDS011;8085;53.472;9.794;2023-01-16T09:47:14;4.63;;;1.07;;
15968;SDS011;8085;53.472;9.794;2023-01-16T09:49:43;4.03;;;1.00;;
15968;SDS011;8085;53.472;9.794;2023-01-16T09:52:15;1.53;;;0.80;;
15968;SDS011;8085;53.472;9.794;2023-01-16T09:55:04;1.80;;;0.80;;
15968;SDS011;8085;53.472;9.794;2023-01-16T09:58:00;1.80;;;1.00;;
15968;SDS011;8085;53.472;9.794;2023-01-16T10:00:46;1.90;;;0.77;;
15968;SDS011;8085;53.472;9.794;2023-01-16T10:03:13;3.27;;;0.90;;
15968;SDS011;8085;53.472;9.794;2023-01-16T10:05:41;3.47;;;0.90;;
15968;SDS011;8085;53.472;9.794;2023-01-16T10:08:18;2.73;;;1.00;;
15968;SDS011;8085;53.472;9.794;2023-01-16T10:10:50;3.67;;;0.87;;
15968;SDS011;8085;53.472;9.794;2023-01-16T10:13:27;2.97;;;1.00;;
15968;SDS011;8085;53.472;9.794;2023-01-16T10:16:11;4.23;;;0.90;;
15968;SDS011;8085;53.472;9.794;2023-01-16T10:18:47;4.23;;;1.30;;
15968;SDS011;8085;53.472;9.794;2023-01-16T10:21:23;3.07;;;0.80;;
15968;SDS011;8085;53.472;9.794;2023-01-16T10:24:05;7.10;;;1.00;;
15968;SDS011;8085;53.472;9.794;2023-01-16T10:26:39;1.67;;;1.07;;
15968;SDS011;8085;53.472;9.794;2023-01-16T10:29:17;2.13;;;0.70;;
15968;SDS011;8085;53.472;9.794;2023-01-16T10:31:50;1.37;;;0.80;;
15968;SDS011;8085;53.472;9.794;2023-01-16T10:34:24;2.30;;;0.90;;
15968;SDS011;8085;53.472;9.794;2023-01-16T10:36:56;4.00;;;1.00;;
15968;SDS011;8085;53.472;9.794;2023-01-16T10:39:29;2.80;;;0.87;;
15968;SDS011;8085;53.472;9.794;2023-01-16T10:41:59;2.73;;;1.00;;
15968;SDS011;8085;53.472;9.794;2023-01-16T10:44:54;1.67;;;0.80;;
15968;SDS011;8085;53.472;9.794;2023-01-16T10:47:42;3.90;;;1.07;;
15968;SDS011;8085;53.472;9.794;2023-01-16T10:50:27;2.23;;;0.80;;
15968;SDS011;8085;53.472;9.794;2023-01-16T10:52:54;3.10;;;1.17;;
15968;SDS011;8085;53.472;9.794;2023-01-16T10:55:23;2.23;;;1.03;;
15968;SDS011;8085;53.472;9.794;2023-01-16T10:57:51;3.30;;;1.00;;
15968;SDS011;8085;53.472;9.794;2023-01-16T11:00:20;2.03;;;1.00;;
15968;SDS011;8085;53.472;9.794;2023-01-16T11:02:53;1.67;;;0.80;;
15968;SDS011;8085;53.472;9.794;2023-01-16T11:05:27;4.30;;;1.10;;
15968;SDS011;8085;53.472;9.794;2023-01-16T11:07:55;3.37;;;1.07;;
15968;SDS011;8085;53.472;9.794;2023-01-16T11:10:31;2.37;;;1.00;;
15968;SDS011;8085;53.472;9.794;2023-01-16T11:12:58;1.30;;;0.87;;
15968;SDS011;8085;53.472;9.794;2023-01-16T11:18:45;3.33;;;1.00;;
15968;SDS011;8085;53.472;9.794;2023-01-16T11:21:14;4.67;;;1.20;;
15968;SDS011;8085;53.472;9.794;2023-01-16T11:23:52;4.23;;;1.27;;
15968;SDS011;8085;53.472;9.794;2023-01-16T11:26:25;2.50;;;1.07;;
15968;SDS011;8085;53.472;9.794;2023-01-16T11:28:52;3.40;;;1.20;;
15968;SDS011;8085;53.472;9.794;2023-01-16T11:31:20;2.87;;;1.00;;
15968;SDS011;8085;53.472;9.794;2023-01-16T11:33:50;1.77;;;0.87;;
15968;SDS011;8085;53.472;9.794;2023-01-16T11:36:22;3.53;;;0.80;;
15968;SDS011;8085;53.472;9.794;2023-01-16T11:38:51;5.03;;;1.20;;
15968;SDS011;8085;53.472;9.794;2023-01-16T11:41:20;2.83;;;1.00;;
15968;SDS011;8085;53.472;9.794;2023-01-16T11:44:04;2.53;;;0.90;;
15968;SDS011;8085;53.472;9.794;2023-01-16T11:46:56;2.93;;;0.90;;
15968;SDS011;8085;53.472;9.794;2023-01-16T11:49:25;4.60;;;1.23;;
15968;SDS011;8085;53.472;9.794;2023-01-16T11:51:53;1.80;;;0.97;;
15968;SDS011;8085;53.472;9.794;2023-01-16T11:54:28;2.07;;;0.80;;
15968;SDS011;8085;53.472;9.794;2023-01-16T11:57:20;1.07;;;0.70;;
15968;SDS011;8085;53.472;9.794;2023-01-16T11:59:58;3.97;;;0.93;;
15968;SDS011;8085;53.472;9.794;2023-01-16T12:02:49;1.93;;;0.90;;
15968;SDS011;8085;53.472;9.794;2023-01-16T12:05:34;4.03;;;0.97;;
15968;SDS011;8085;53.472;9.794;2023-01-16T12:08:24;2.30;;;0.70;;
15968;SDS011;8085;53.472;9.794;2023-01-16T12:11:01;3.03;;;0.80;;
15968;SDS011;8085;53.472;9.794;2023-01-16T12:13:35;2.03;;;0.80;;
15968;SDS011;8085;53.472;9.794;2023-01-16T12:16:28;2.97;;;1.03;;
15968;SDS011;8085;53.472;9.794;2023-01-16T12:19:07;3.27;;;1.00;;
15968;SDS011;8085;53.472;9.794;2023-01-16T12:21:49;3.03;;;0.90;;
15968;SDS011;8085;53.472;9.794;2023-01-16T12:24:26;1.33;;;0.70;;
15968;SDS011;8085;53.472;9.794;2023-01-16T12:27:05;1.63;;;0.73;;
15968;SDS011;8085;53.472;9.794;2023-01-16T12:29:50;2.03;;;1.00;;
15968;SDS011;8085;53.472;9.794;2023-01-16T12:32:29;2.73;;;1.00;;
15968;SDS011;8085;53.472;9.794;2023-01-16T12:35:17;1.40;;;0.90;;
15968;SDS011;8085;53.472;9.794;2023-01-16T12:38:04;2.53;;;0.80;;
15968;SDS011;8085;53.472;9.794;2023-01-16T12:40:51;2.37;;;0.80;;
15968;SDS011;8085;53.472;9.794;2023-01-16T12:43:51;4.53;;;1.03;;
15968;SDS011;8085;53.472;9.794;2023-01-16T12:46:31;3.47;;;0.97;;
15968;SDS011;8085;53.472;9.794;2023-01-16T12:49:11;3.73;;;0.80;;
15968;SDS011;8085;53.472;9.794;2023-01-16T12:51:52;3.77;;;0.70;;
15968;SDS011;8085;53.472;9.794;2023-01-16T12:54:33;2.53;;;0.70;;
15968;SDS011;8085;53.472;9.794;2023-01-16T12:57:16;2.20;;;0.70;;
15968;SDS011;8085;53.472;9.794;2023-01-16T12:59:53;1.73;;;0.80;;
15968;SDS011;8085;53.472;9.794;2023-01-16T13:02:28;1.63;;;0.77;;
15968;SDS011;8085;53.472;9.794;2023-01-16T13:05:02;2.30;;;0.80;;
15968;SDS011;8085;53.472;9.794;2023-01-16T13:07:33;2.83;;;0.90;;
15968;SDS011;8085;53.472;9.794;2023-01-16T13:10:05;3.07;;;0.97;;
15968;SDS011;8085;53.472;9.794;2023-01-16T13:12:58;5.50;;;1.00;;
15968;SDS011;8085;53.472;9.794;2023-01-16T13:15:45;3.33;;;1.10;;
15968;SDS011;8085;53.472;9.794;2023-01-16T13:18:18;1.83;;;0.80;;
15968;SDS011;8085;53.472;9.794;2023-01-16T13:20:47;3.33;;;0.97;;
15968;SDS011;8085;53.472;9.794;2023-01-16T13:23:19;1.87;;;0.70;;
15968;SDS011;8085;53.472;9.794;2023-01-16T13:25:50;4.37;;;1.07;;
15968;SDS011;8085;53.472;9.794;2023-01-16T13:28:24;2.80;;;0.90;;
15968;SDS011;8085;53.472;9.794;2023-01-16T13:30:57;3.57;;;0.93;;
15968;SDS011;8085;53.472;9.794;2023-01-16T13:33:30;2.43;;;0.70;;
15968;SDS011;8085;53.472;9.794;2023-01-16T13:36:02;3.27;;;1.00;;
15968;SDS011;8085;53.472;9.794;2023-01-16T13:38:41;1.77;;;0.70;;
15968;SDS011;8085;53.472;9.794;2023-01-16T13:41:23;2.00;;;0.80;;
15968;SDS011;8085;53.472;9.794;2023-01-16T13:43:54;2.43;;;0.90;;
15968;SDS011;8085;53.472;9.794;2023-01-16T13:46:42;3.57;;;1.00;;
15968;SDS011;8085;53.472;9.794;2023-01-16T13:49:14;1.57;;;0.70;;
15968;SDS011;8085;53.472;9.794;2023-01-16T13:51:46;2.60;;;0.90;;
15968;SDS011;8085;53.472;9.794;2023-01-16T13:54:14;2.87;;;0.80;;
15968;SDS011;8085;53.472;9.794;2023-01-16T13:56:55;1.70;;;0.70;;
15968;SDS011;8085;53.472;9.794;2023-01-16T13:59:29;1.97;;;0.83;;
15968;SDS011;8085;53.472;9.794;2023-01-16T14:02:21;4.27;;;1.30;;
15968;SDS011;8085;53.472;9.794;2023-01-16T14:07:49;3.77;;;1.10;;
15968;SDS011;8085;53.472;9.794;2023-01-16T14:10:46;1.77;;;0.90;;
15968;SDS011;8085;53.472;9.794;2023-01-16T14:13:31;2.30;;;0.97;;
15968;SDS011;8085;53.472;9.794;2023-01-16T14:16:00;2.77;;;0.90;;
15968;SDS011;8085;53.472;9.794;2023-01-16T14:18:57;3.23;;;1.10;;
15968;SDS011;8085;53.472;9.794;2023-01-16T14:21:27;2.87;;;0.90;;
15968;SDS011;8085;53.472;9.794;2023-01-16T14:24:05;1.60;;;0.83;;
15968;SDS011;8085;53.472;9.794;2023-01-16T14:26:40;3.37;;;1.00;;
15968;SDS011;8085;53.472;9.794;2023-01-16T14:29:14;3.00;;;0.80;;
15968;SDS011;8085;53.472;9.794;2023-01-16T14:31:44;2.37;;;0.70;;
15968;SDS011;8085;53.472;9.794;2023-01-16T14:34:18;6.27;;;0.90;;
15968;SDS011;8085;53.472;9.794;2023-01-16T14:36:50;3.20;;;0.70;;
15968;SDS011;8085;53.472;9.794;2023-01-16T14:39:26;1.83;;;0.60;;
15968;SDS011;8085;53.472;9.794;2023-01-16T14:41:56;2.67;;;0.80;;
15968;SDS011;8085;53.472;9.794;2023-01-16T14:44:59;3.23;;;0.70;;
15968;SDS011;8085;53.472;9.794;2023-01-16T14:48:04;2.53;;;0.80;;
15968;SDS011;8085;53.472;9.794;2023-01-16T14:50:54;2.60;;;1.00;;
15968;SDS011;8085;53.472;9.794;2023-01-16T14:53:43;1.97;;;0.77;;
15968;SDS011;8085;53.472;9.794;2023-01-16T14:56:30;2.03;;;0.80;;
15968;SDS011;8085;53.472;9.794;2023-01-16T14:59:03;2.43;;;0.80;;
15968;SDS011;8085;53.472;9.794;2023-01-16T15:01:32;3.23;;;0.90;;
15968;SDS011;8085;53.472;9.794;2023-01-16T15:04:37;1.47;;;0.77;;
15968;SDS011;8085;53.472;9.794;2023-01-16T15:07:09;1.77;;;0.80;;
15968;SDS011;8085;53.472;9.794;2023-01-16T15:09:42;1.83;;;0.77;;
15968;SDS011;8085;53.472;9.794;2023-01-16T15:12:10;2.30;;;0.90;;
15968;SDS011;8085;53.472;9.794;2023-01-16T15:14:38;2.40;;;1.03;;
15968;SDS011;8085;53.472;9.794;2023-01-16T15:17:17;1.87;;;1.00;;
15968;SDS011;8085;53.472;9.794;2023-01-16T15:20:07;5.13;;;1.83;;
15968;SDS011;8085;53.472;9.794;2023-01-16T15:23:03;2.87;;;1.27;;
15968;SDS011;8085;53.472;9.794;2023-01-16T15:25:48;6.60;;;1.90;;
15968;SDS011;8085;53.472;9.794;2023-01-16T15:28:40;4.17;;;2.27;;
15968;SDS011;8085;53.472;9.794;2023-01-16T15:31:17;4.97;;;2.33;;
15968;SDS011;8085;53.472;9.794;2023-01-16T15:33:57;3.93;;;1.53;;
15968;SDS011;8085;53.472;9.794;2023-01-16T15:36:25;3.63;;;1.40;;
15968;SDS011;8085;53.472;9.794;2023-01-16T15:38:58;1.60;;;0.93;;
15968;SDS011;8085;53.472;9.794;2023-01-16T15:41:27;3.80;;;1.23;;
15968;SDS011;8085;53.472;9.794;2023-01-16T15:44:15;3.33;;;1.00;;
15968;SDS011;8085;53.472;9.794;2023-01-16T15:50:16;2.97;;;1.30;;